Latest Weather Observations for Tewantin

IDQ60801

Issued at 2:02 pm EST Wednesday 26 April 2017 (issued every 30 minutes, with the page automatically refreshed every 10 minutes)

About weather observations | Map of weather stations | Latest weather observations for QLD | Other Formats
Station Details ID: 040908 Name: TEWANTIN RSL PARK Lat: -26.39 Lon: 153.04 Height: 6.4 m
Data from the previous 72 hours. | See also: Recent months at Tewantin
Date/Time
EST
Temp
°C
App
Temp
°C
Dew
Point
°C
Rel
Hum
%
Delta-T
°C
Wind Press
QNH
hPa
Press
MSL
hPa
Rain since
9am
mm
Dir  Spd
km/h
Gust
km/h
Spd
kts
Gust
kts
26/02:00pm 26.9 27.6 17.1 55 6.1 NNW 9 19 5 10 1009.5 1009.5 0.0
26/01:30pm 27.3 27.9 16.9 53 6.5 NW 9 15 5 8 1009.8 1009.8 0.0
26/01:00pm 27.9 27.9 16.2 49 7.2 WNW 11 17 6 9 1010.4 1010.4 0.0
26/12:30pm 28.0 28.4 17.2 52 6.8 NW 11 19 6 10 1010.9 1010.9 0.0
26/12:00pm 27.1 27.7 18.7 60 5.4 NNW 13 22 7 12 1011.5 1011.5 0.0
26/11:30am 27.3 27.4 18.3 58 5.7 NNW 15 24 8 13 1012.0 1012.0 0.0
26/11:00am 26.2 26.9 18.9 64 4.7 N 13 22 7 12 1012.6 1012.6 0.0
26/10:30am 25.0 25.4 19.1 70 3.8 N 15 22 8 12 1013.2 1013.2 0.0
26/10:00am 25.1 26.4 20.1 74 3.2 NNW 13 20 7 11 1013.8 1013.8 0.0
26/09:30am 24.0 26.2 20.5 81 2.3 N 9 13 5 7 1014.3 1014.3 0.0
26/09:00am 22.0 23.9 19.0 83 1.9 N 7 11 4 6 1014.4 1014.4 0.0
26/08:30am 21.4 23.3 19.0 86 1.5 N 7 9 4 5 1014.4 1014.4 0.0
26/08:00am 20.4 22.0 18.2 87 1.4 N 7 9 4 5 1014.4 1014.4 0.0
26/07:30am 19.6 20.7 18.1 91 0.9 N 9 11 5 6 1014.4 1014.4 0.0
26/07:00am 19.0 20.6 18.2 95 0.5 NNW 7 11 4 6 1014.4 1014.4 0.0
26/06:30am 17.8 19.1 17.6 99 0.1 NNW 7 9 4 5 1014.1 1014.1 0.0
26/06:00am 17.6 19.4 17.4 99 0.1 N 4 7 2 4 1014.1 1014.1 0.0
26/05:30am 17.7 19.2 17.5 99 0.1 NNW 6 7 3 4 1014.0 1014.0 0.0
26/05:00am 17.8 19.3 17.6 99 0.1 NNW 6 9 3 5 1013.9 1013.9 0.0
26/04:30am 17.6 19.0 17.4 99 0.1 NNW 6 9 3 5 1014.0 1014.0 0.0
26/04:00am 17.6 19.0 17.4 99 0.1 NNW 6 7 3 4 1013.7 1013.7 0.0
26/03:30am 17.6 20.1 17.3 98 0.2 CALM 0 6 0 3 1013.9 1013.9 0.0
26/03:00am 18.0 19.4 17.8 99 0.1 NNW 7 11 4 6 1013.8 1013.8 0.0
26/02:30am 17.8 19.3 17.6 99 0.1 NW 6 9 3 5 1013.9 1013.9 0.0
26/02:00am 18.0 19.4 17.7 98 0.2 NW 7 9 4 5 1014.0 1014.0 0.0
26/01:30am 18.1 19.7 17.8 98 0.2 NNW 6 7 3 4 1014.1 1014.1 0.0
26/01:00am 17.9 19.3 17.4 97 0.3 NW 6 7 3 4 1014.4 1014.4 0.0
26/12:30am 17.8 19.3 17.5 98 0.2 NW 6 9 3 5 1014.7 1014.7 0.0
26/12:00am 17.7 20.2 17.2 97 0.3 CALM 0 0 0 0 1014.9 1014.9 0.0
 
Date/Time
EST
Temp
°C
App
Temp
°C
Dew
Point
°C
Rel
Hum
%
Delta-T
°C
Wind Press
QNH
hPa
Press
MSL
hPa
Rain since
9am
mm
Dir  Spd
km/h
Gust
km/h
Spd
kts
Gust
kts
25/11:30pm 18.0 20.7 17.7 98 0.2 CALM 0 0 0 0 1015.3 1015.3 0.0
25/11:00pm 18.2 20.8 17.6 96 0.4 CALM 0 0 0 0 1015.6 1015.6 0.0
25/10:30pm 18.6 21.5 18.3 98 0.2 CALM 0 0 0 0 1015.9 1015.9 0.0
25/10:00pm 18.7 21.4 17.7 94 0.6 CALM 0 0 0 0 1016.2 1016.2 0.0
25/09:30pm 18.9 21.8 18.1 95 0.5 CALM 0 0 0 0 1016.3 1016.3 0.0
25/09:00pm 19.2 22.0 18.0 93 0.7 CALM 0 0 0 0 1016.4 1016.4 0.0
25/08:30pm 19.5 22.3 18.0 91 0.9 CALM 0 0 0 0 1016.2 1016.2 0.0
25/08:00pm 19.9 22.0 18.2 90 1.1 WSW 4 6 2 3 1016.1 1016.1 0.0
25/07:30pm 20.2 23.3 18.7 91 0.9 CALM 0 0 0 0 1015.8 1015.8 0.0
25/07:00pm 20.7 23.6 18.1 85 1.6 CALM 0 0 0 0 1015.9 1015.9 0.0
25/06:30pm 21.4 24.2 18.0 81 2.1 CALM 0 0 0 0 1015.6 1015.6 0.0
25/06:00pm 21.7 24.6 18.1 80 2.2 CALM 0 0 0 0 1015.5 1015.5 0.0
25/05:30pm 22.1 23.6 17.5 75 2.8 ENE 6 9 3 5 1015.2 1015.2 0.0
25/05:00pm 22.8 23.8 17.7 73 3.2 NE 9 13 5 7 1015.3 1015.3 0.0
25/04:30pm 23.2 23.7 17.4 70 3.6 NE 11 15 6 8 1015.4 1015.4 0.0
25/04:00pm 23.6 24.4 17.3 67 3.9 NE 9 15 5 8 1015.4 1015.4 0.0
25/03:30pm 23.9 24.2 16.9 65 4.3 ENE 11 17 6 9 1015.4 1015.4 0.0
25/03:00pm 24.4 24.7 17.1 63 4.5 ENE 11 17 6 9 1015.3 1015.3 0.0
25/02:30pm 24.6 25.3 17.1 63 4.6 ENE 9 15 5 8 1015.5 1015.5 0.0
25/02:00pm 24.4 24.0 16.1 60 5.0 E 13 20 7 11 1015.7 1015.7 0.0
25/01:30pm 24.7 24.8 16.4 60 5.1 ENE 11 19 6 10 1016.0 1016.0 0.0
25/01:00pm 24.5 24.5 16.2 60 5.1 ESE 11 19 6 10 1016.3 1016.3 0.0
25/12:30pm 24.2 24.4 16.7 63 4.6 E 11 15 6 8 1016.9 1016.9 0.0
25/12:00pm 24.9 25.0 16.6 60 5.1 SE 11 17 6 9 1017.4 1017.4 0.0
25/11:30am 24.2 24.3 16.5 62 4.7 SE 11 17 6 9 1017.8 1017.8 0.0
25/11:00am 24.0 24.0 16.3 62 4.7 SE 11 19 6 10 1018.3 1018.3 0.0
25/10:30am 23.9 23.9 16.2 62 4.7 SE 11 19 6 10 1018.6 1018.6 0.0
25/10:00am 24.3 25.1 17.3 65 4.3 SE 9 15 5 8 1018.9 1018.9 0.0
25/09:30am 23.7 23.7 17.2 67 4.0 S 13 19 7 10 1019.3 1019.3 0.0
25/09:00am 22.9 22.8 16.9 69 3.7 S 13 19 7 10 1019.2 1019.2 0.0
25/08:30am 21.9 22.3 16.4 71 3.3 S 9 15 5 8 1019.1 1019.1 0.0
25/08:00am 21.1 21.7 16.9 77 2.6 S 9 13 5 7 1019.0 1019.0 0.0
25/07:30am 19.9 20.7 16.3 80 2.2 S 7 11 4 6 1018.9 1018.9 0.0
25/07:00am 19.0 19.9 16.6 86 1.4 SSE 7 11 4 6 1018.6 1018.6 0.0
25/06:30am 18.1 19.2 17.1 94 0.6 S 7 11 4 6 1018.5 1018.5 0.0
25/06:00am 18.2 19.0 17.4 95 0.5 S 9 13 5 7 1018.1 1018.1 0.0
25/05:30am 18.0 19.2 17.4 96 0.4 S 7 9 4 5 1018.0 1018.0 0.0
25/05:00am 17.9 19.0 16.6 92 0.8 S 6 9 3 5 1017.6 1017.6 0.0
25/04:30am 18.3 18.9 16.8 91 0.9 S 9 13 5 7 1017.6 1017.6 0.0
25/04:00am 18.4 19.1 17.1 92 0.8 S 9 13 5 7 1017.7 1017.7 0.0
25/03:30am 18.6 19.2 16.9 90 1.0 S 9 15 5 8 1017.8 1017.8 0.0
25/03:00am 18.6 19.3 17.1 91 0.9 S 9 11 5 6 1017.9 1017.9 0.0
25/02:30am 18.5 19.6 17.0 91 0.9 S 7 11 4 6 1017.9 1017.9 0.0
25/02:00am 18.5 19.6 17.2 92 0.8 S 7 11 4 6 1018.0 1018.0 0.0
25/01:30am 18.4 19.5 17.1 92 0.8 S 7 11 4 6 1018.1 1018.1 0.0
25/01:00am 18.4 19.7 17.1 92 0.8 S 6 9 3 5 1018.4 1018.4 0.0
25/12:30am 18.7 19.8 17.2 91 0.9 S 7 9 4 5 1018.8 1018.8 0.0
25/12:00am 18.6 20.0 17.4 93 0.7 SSW 6 9 3 5 1019.3 1019.3 0.0
 
Date/Time
EST
Temp
°C
App
Temp
°C
Dew
Point
°C
Rel
Hum
%
Delta-T
°C
Wind Press
QNH
hPa
Press
MSL
hPa
Rain since
9am
mm
Dir  Spd
km/h
Gust
km/h
Spd
kts
Gust
kts
24/11:30pm 18.2 19.6 16.5 90 1.0 SSW 4 7 2 4 1019.6 1019.6 0.0
24/11:00pm 18.6 20.2 16.8 89 1.1 SSW 4 7 2 4 1019.8 1019.8 0.0
24/10:30pm 19.0 20.3 17.0 88 1.2 SSW 6 11 3 6 1019.9 1019.9 0.0
24/10:00pm 19.4 20.5 17.2 87 1.3 SSW 7 11 4 6 1020.0 1020.0 0.0
24/09:30pm 19.5 20.8 17.5 88 1.2 SSW 7 11 4 6 1020.1 1020.1 0.0
24/09:00pm 19.8 21.2 17.4 86 1.5 SW 6 9 3 5 1020.4 1020.4 0.0
24/08:30pm 20.1 21.0 17.5 85 1.6 S 9 11 5 6 1020.2 1020.2 0.0
24/08:00pm 20.3 21.2 17.5 84 1.7 SSW 9 13 5 7 1020.0 1020.0 0.0
24/07:30pm 20.6 22.0 17.8 84 1.7 SSW 7 11 4 6 1019.9 1019.9 0.0
24/07:00pm 20.9 22.4 17.5 81 2.1 SSW 6 11 3 6 1019.6 1019.6 0.0
24/06:30pm 21.4 22.5 17.2 77 2.6 SSE 7 11 4 6 1019.2 1019.2 0.0
24/06:00pm 21.9 23.0 17.1 74 2.9 SSE 7 11 4 6 1019.1 1019.1 0.0
24/05:30pm 22.2 22.8 16.9 72 3.2 SSE 9 15 5 8 1018.8 1018.8 0.0
24/05:00pm 22.6 22.9 16.9 70 3.5 SE 11 17 6 9 1018.5 1018.5 0.0
24/04:30pm 22.8 22.6 16.6 68 3.8 SE 13 22 7 12 1018.4 1018.4 0.0
24/04:00pm 23.2 23.2 17.2 69 3.7 SE 13 22 7 12 1018.4 1018.4 0.0
24/03:30pm 23.4 22.7 17.4 69 3.7 SE 17 28 9 15 1018.3 1018.3 0.0
24/03:00pm 23.5 22.2 16.8 66 4.1 SE 19 28 10 15 1018.1 1018.1 0.0
24/02:30pm 24.1 23.5 17.6 67 4.0 SE 17 24 9 13 1018.4 1018.4 0.0
24/02:00pm 24.1 23.8 16.4 62 4.7 SE 13 24 7 13 1018.4 1018.4 0.0
24/01:30pm 24.3 23.6 17.3 65 4.3 SE 17 28 9 15 1018.7 1018.7 0.0
24/01:00pm 24.3 23.9 16.3 61 4.9 SE 13 28 7 15 1018.9 1018.9 0.0
24/12:30pm 24.7 24.5 17.7 65 4.4 SE 15 22 8 12 1019.3 1019.3 0.0
24/12:00pm 24.5 23.7 16.2 60 5.1 SSE 15 24 8 13 1019.8 1019.8 0.0
24/11:30am 24.5 23.7 16.2 60 5.1 SE 15 24 8 13 1019.9 1019.9 0.0
24/11:00am 24.7 24.5 16.7 61 4.9 SE 13 22 7 12 1020.3 1020.3 0.0
24/10:30am 23.7 23.2 17.0 66 4.1 SSE 15 26 8 14 1020.7 1020.7 0.0
24/10:00am 23.1 22.9 17.6 71 3.4 S 15 22 8 12 1021.0 1021.0 0.0
24/09:30am 22.7 21.6 17.4 72 3.3 S 19 28 10 15 1021.0 1021.0 0.0
24/09:00am 22.2 21.4 17.1 73 3.1 S 17 22 9 12 1020.9 1020.9 0.0
24/08:30am 21.4 21.8 18.2 82 2.0 S 13 19 7 10 1020.9 1020.9 0.0
24/08:00am 20.6 21.0 18.2 86 1.5 S 13 19 7 10 1020.8 1020.8 0.0
24/07:30am 19.7 21.4 18.0 90 1.0 SSW 6 11 3 6 1020.5 1020.5 0.0
24/07:00am 19.0 20.1 18.0 94 0.6 S 9 13 5 7 1020.2 1020.2 0.0
24/06:30am 18.7 19.8 18.0 96 0.4 S 9 13 5 7 1020.0 1020.0 0.0
24/06:00am 18.5 20.0 17.7 95 0.5 SSW 6 9 3 5 1019.8 1019.8 0.0
24/05:30am 18.8 20.3 18.1 96 0.4 S 7 13 4 7 1019.6 1019.6 0.0
24/05:00am 18.9 20.1 18.2 96 0.4 S 9 11 5 6 1019.4 1019.4 0.0
24/04:30am 18.9 20.3 17.9 94 0.6 S 7 11 4 6 1019.2 1019.2 0.0
24/04:00am 19.2 19.9 17.9 92 0.8 S 11 17 6 9 1018.9 1018.9 0.0
24/03:30am 19.1 20.5 17.9 93 0.7 SSW 7 17 4 9 1019.4 1019.4 0.0
24/03:00am 19.4 21.0 18.2 93 0.7 S 7 9 4 5 1019.3 1019.3 0.0
24/02:30am 19.3 20.6 18.5 95 0.5 S 9 13 5 7 1019.8 1019.8 0.0
24/02:00am 19.2 21.6 18.0 93 0.7 SW 2 7 1 4 1019.9 1019.9 0.0
24/01:30am 19.3 20.2 18.5 95 0.5 S 11 17 6 9 1019.8 1019.8 0.0
24/01:00am 19.6 20.9 18.4 93 0.7 S 9 15 5 8 1020.3 1020.3 0.0
24/12:30am 19.4 21.5 18.1 92 0.8 SSW 4 11 2 6 1021.0 1021.0 0.0
24/12:00am 19.6 20.5 18.3 92 0.8 S 11 15 6 8 1020.6 1020.6 0.0
 
Date/Time
EST
Temp
°C
App
Temp
°C
Dew
Point
°C
Rel
Hum
%
Delta-T
°C
Wind Press
QNH
hPa
Press
MSL
hPa
Rain since
9am
mm
Dir  Spd
km/h
Gust
km/h
Spd
kts
Gust
kts
23/11:30pm 19.7 20.9 18.2 91 0.9 SSW 9 13 5 7 1021.1 1021.1 0.0
23/11:00pm 19.8 21.3 18.1 90 1.0 SSW 7 13 4 7 1021.5 1021.5 0.0
23/10:30pm 19.5 21.0 17.6 89 1.2 SSW 6 9 3 5 1021.5 1021.5 0.0
23/10:00pm 19.8 21.2 17.8 88 1.2 SSW 7 11 4 6 1021.6 1021.6 0.0
23/09:30pm 19.9 21.3 17.7 87 1.4 SSW 7 11 4 6 1021.6 1021.6 0.0
23/09:00pm 19.8 22.2 17.9 89 1.2 SSW 2 7 1 4 1021.8 1021.8 0.0
23/08:30pm 20.1 21.6 17.7 86 1.5 SW 6 9 3 5 1021.6 1021.6 0.0
23/08:00pm 20.4 21.8 17.8 85 1.6 SSW 7 9 4 5 1021.3 1021.3 0.0
23/07:30pm 20.5 21.9 17.7 84 1.7 SSW 7 9 4 5 1021.0 1021.0 0.0
23/07:00pm 21.0 22.3 17.6 81 2.1 SSW 7 9 4 5 1020.8 1020.8 0.0
23/06:30pm 21.6 22.7 17.2 76 2.7 S 7 11 4 6 1020.5 1020.5 0.0
23/06:00pm 22.0 23.0 16.9 73 3.1 SSE 7 13 4 7 1020.3 1020.3 0.0
23/05:30pm 22.4 23.0 16.7 70 3.5 SSE 9 13 5 7 1020.2 1020.2 0.0
23/05:00pm 23.0 23.6 16.8 68 3.8 SSE 9 17 5 9 1020.1 1020.1 0.0
23/04:30pm 23.2 23.1 17.0 68 3.8 SE 13 19 7 10 1020.0 1020.0 0.0
23/04:00pm 23.7 23.6 17.0 66 4.1 SE 13 20 7 11 1019.7 1019.7 0.0
23/03:30pm 23.8 23.4 17.1 66 4.1 SE 15 24 8 13 1019.5 1019.5 0.0
23/03:00pm 23.8 22.7 16.3 63 4.6 ESE 17 26 9 14 1019.4 1019.4 0.0
23/02:30pm 24.4 24.3 16.9 63 4.6 SE 13 24 7 13 1019.5 1019.5 0.0

Other Formats:

Comma delimited format used in spreadsheet applications
http://www.bom.gov.au/fwo/IDQ60801/IDQ60801.94570.axf

JavaScript Object Notation format (JSON) in row-major order
http://www.bom.gov.au/fwo/IDQ60801/IDQ60801.94570.json